Time;durP1;ratioP1;P1;durP2;ratioP2;P2;SDS_P1;SDS_P2;PMS_P1;PMS_P2;Temp;Humidity;BMP_temperature;BMP_pressure;BME280_temperature;BME280_humidity;BME280_pressure;Samples;Min_cycle;Max_cycle;Signal;HPM_P1;HPM_P2
2023/07/02 00:00:05;;;;;;;;;;;;;;;;;;5065781;28;19931;-64
2023/07/02 00:02:31;;;;;;;;;;;;;;;;;;5064604;28;19928;-64
2023/07/02 00:04:57;;;;;;;;;;;;;;;;;;5064382;28;19970;-64
2023/07/02 00:07:25;;;;;;;;;;;;;;;;;;5065168;28;20277;-64
2023/07/02 00:09:51;;;;;;;;;;;;;;;;;;5063319;28;19998;-63
2023/07/02 00:12:17;;;;;;;;;;;;;;;;;;5065089;28;19959;-64
2023/07/02 00:14:43;;;;;;;;;;;;;;;;;;5065007;28;19924;-64
2023/07/02 00:17:12;;;;;;;;;;;;;;;;;;5064876;28;19924;-64
2023/07/02 00:19:39;;;;;;;;;;;;;;;;;;5065588;28;19924;-64
2023/07/02 00:22:05;;;;;;;;;;;;;;;;;;5064116;28;19940;-64
2023/07/02 00:24:31;;;;;;;;;;;;;;;;;;5064894;28;19928;-64
2023/07/02 00:26:57;;;;;;;;;;;;;;;;;;5063387;28;19924;-64
2023/07/02 00:29:23;;;;;;;;;;;;;;;;;;5064772;28;20019;-64
2023/07/02 00:31:49;;;;;;;;;;;;;;;;;;5064114;28;20015;-64
2023/07/02 00:34:15;;;;;;;;;;;;;;;;;;5064163;28;19928;-64
2023/07/02 00:36:41;;;;;;;;;;;;;;;;;;5065023;28;20361;-64
2023/07/02 00:39:07;;;;;;;;;;;;;;;;;;5064821;28;19925;-64
2023/07/02 00:41:33;;;;;;;;;;;;;;;;;;5064369;28;19925;-63
2023/07/02 00:43:59;;;;;;;;;;;;;;;;;;5064989;28;19931;-64
2023/07/02 00:46:25;;;;;;;;;;;;;;;;;;5064324;28;19932;-64
2023/07/02 00:48:51;;;;;;;;;;;;;;;;;;5064156;28;19934;-64
2023/07/02 00:51:17;;;;;;;;;;;;;;;;;;5064078;28;19924;-64
2023/07/02 00:53:43;;;;;;;;;;;;;;;;;;5064092;28;19967;-64
2023/07/02 00:56:09;;;;;;;;;;;;;;;;;;5063472;28;20005;-63
2023/07/02 00:58:35;;;;;;;;;;;;;;;;;;5064693;28;20347;-64
2023/07/02 01:01:01;;;;;;;;;;;;;;;;;;5061065;28;20473;-64
2023/07/02 01:03:26;;;;;;;;;;;;;;;;;;5064671;28;19925;-64
2023/07/02 01:05:52;;;;;;;;;;;;;;;;;;5063912;28;19924;-64
2023/07/02 01:08:18;;;;;;;;;;;;;;;;;;5137090;22;19982;-62
2023/07/02 01:10:44;;;;;;;;;;;;;;;;;;5061463;28;19931;-62
2023/07/02 01:13:10;;;;;;;;;;;;;;;;;;5063830;28;19925;-62
2023/07/02 01:15:36;;;;;;;;;;;;;;;;;;5062657;28;20416;-62
2023/07/02 01:18:03;;;;;;;;;;;;;;;;;;5064030;28;20003;-61
2023/07/02 01:20:30;;;;;;;;;;;;;;;;;;5064002;28;20007;-62
2023/07/02 01:22:56;;;;;;;;;;;;;;;;;;5063351;28;20624;-62
2023/07/02 01:25:24;;;;;;;;;;;;;;;;;;5063071;28;19932;-62
2023/07/02 01:27:50;;;;;;;;;;;;;;;;;;5063978;28;19979;-62
2023/07/02 01:30:16;;;;;;;;;;;;;;;;;;5062953;28;19971;-62
2023/07/02 01:32:42;;;;;;;;;;;;;;;;;;5063490;28;20273;-62
2023/07/02 01:35:08;;;;;;;;;;;;;;;;;;5064539;28;19949;-62
2023/07/02 01:37:37;;;;;;;;;;;;;;;;;;5063969;28;20019;-62
2023/07/02 01:40:03;;;;;;;;;;;;;;;;;;5063732;28;19932;-62
2023/07/02 01:42:29;;;;;;;;;;;;;;;;;;5062979;28;20037;-62
2023/07/02 01:44:55;;;;;;;;;;;;;;;;;;5063311;28;20019;-62
2023/07/02 01:47:21;;;;;;;;;;;;;;;;;;5063772;28;20019;-62
2023/07/02 01:49:47;;;;;;;;;;;;;;;;;;5063596;28;20011;-62
2023/07/02 01:52:12;;;;;;;;;;;;;;;;;;5063687;28;19955;-62
2023/07/02 01:54:38;;;;;;;;;;;;;;;;;;5063312;28;20041;-62
2023/07/02 01:57:04;;;;;;;;;;;;;;;;;;5063709;28;19928;-63
2023/07/02 01:59:30;;;;;;;;;;;;;;;;;;5063633;28;20344;-62
2023/07/02 02:01:56;;;;;;;;;;;;;;;;;;5063260;28;19932;-62
2023/07/02 02:04:22;;;;;;;;;;;;;;;;;;5063448;28;19928;-62
2023/07/02 02:06:48;;;;;;;;;;;;;;;;;;5053011;28;20015;-62
2023/07/02 02:09:14;;;;;;;;;;;;;;;;;;5063725;28;19931;-62
2023/07/02 02:11:40;;;;;;;;;;;;;;;;;;5063750;28;19924;-62
2023/07/02 02:14:06;;;;;;;;;;;;;;;;;;5063436;28;20432;-62
2023/07/02 02:16:33;;;;;;;;;;;;;;;;;;5063339;28;19935;-62
2023/07/02 02:18:59;;;;;;;;;;;;;;;;;;5062487;28;20281;-62
2023/07/02 02:21:25;;;;;;;;;;;;;;;;;;5063817;28;19924;-62
2023/07/02 02:23:51;;;;;;;;;;;;;;;;;;5063486;28;19935;-62
2023/07/02 02:26:17;;;;;;;;;;;;;;;;;;5063472;28;19932;-62
2023/07/02 02:28:43;;;;;;;;;;;;;;;;;;5063575;28;19970;-62
2023/07/02 02:31:09;;;;;;;;;;;;;;;;;;5063042;28;19931;-62
2023/07/02 02:33:35;;;;;;;;;;;;;;;;;;5062885;28;20423;-62
2023/07/02 02:36:01;;;;;;;;;;;;;;;;;;5063531;28;19928;-62
2023/07/02 02:38:27;;;;;;;;;;;;;;;;;;5063046;28;19932;-62
2023/07/02 02:40:53;;;;;;;;;;;;;;;;;;5063404;28;19925;-62
2023/07/02 02:43:20;;;;;;;;;;;;;;;;;;5062174;28;19924;-62
2023/07/02 02:45:46;;;;;;;;;;;;;;;;;;5061846;28;19982;-62
2023/07/02 02:48:12;;;;;;;;;;;;;;;;;;5063242;28;19924;-63
2023/07/02 02:50:41;;;;;;;;;;;;;;;;;;5063331;28;20015;-62
2023/07/02 02:53:07;;;;;;;;;;;;;;;;;;5064774;28;19978;-62
2023/07/02 02:55:32;;;;;;;;;;;;;;;;;;5067471;28;19932;-62
2023/07/02 02:57:59;;;;;;;;;;;;;;;;;;5066373;28;19924;-62
2023/07/02 03:00:25;;;;;;;;;;;;;;;;;;5066091;28;20376;-62
2023/07/02 03:02:50;;;;;;;;;;;;;;;;;;5066938;28;19924;-62
2023/07/02 03:05:16;;;;;;;;;;;;;;;;;;5066920;28;19954;-62
2023/07/02 03:07:42;;;;;;;;;;;;;;;;;;5061454;28;19932;-62
2023/07/02 03:10:08;;;;;;;;;;;;;;;;;;5064594;28;19924;-62
2023/07/02 03:12:34;;;;;;;;;;;;;;;;;;5064866;28;19928;-62
2023/07/02 03:15:00;;;;;;;;;;;;;;;;;;5065865;28;19990;-61
2023/07/02 03:17:26;;;;;;;;;;;;;;;;;;5066883;28;19931;-61
2023/07/02 03:19:52;;;;;;;;;;;;;;;;;;5066517;28;19928;-61
2023/07/02 03:22:18;;;;;;;;;;;;;;;;;;5066462;28;19924;-61
2023/07/02 03:24:44;;;;;;;;;;;;;;;;;;5065757;28;19925;-62
2023/07/02 03:27:10;;;;;;;;;;;;;;;;;;5066475;28;19924;-61
2023/07/02 03:29:35;;;;;;;;;;;;;;;;;;5066394;28;20377;-61
2023/07/02 03:32:01;;;;;;;;;;;;;;;;;;5065557;28;19924;-61
2023/07/02 03:34:27;;;;;;;;;;;;;;;;;;5066689;28;19931;-62
2023/07/02 03:36:53;;;;;;;;;;;;;;;;;;5065683;28;20406;-61
2023/07/02 03:39:19;;;;;;;;;;;;;;;;;;5063880;28;20439;-62
2023/07/02 03:41:45;;;;;;;;;;;;;;;;;;5066435;28;19932;-62
2023/07/02 03:44:11;;;;;;;;;;;;;;;;;;5065913;28;20428;-62
2023/07/02 03:46:37;;;;;;;;;;;;;;;;;;5065631;28;19931;-62
2023/07/02 03:49:03;;;;;;;;;;;;;;;;;;5060384;28;19925;-62
2023/07/02 03:51:29;;;;;;;;;;;;;;;;;;5065398;28;19931;-62
2023/07/02 03:53:55;;;;;;;;;;;;;;;;;;5064628;28;19924;-62
2023/07/02 03:56:21;;;;;;;;;;;;;;;;;;5057521;28;20340;-62
2023/07/02 03:58:47;;;;;;;;;;;;;;;;;;5066134;28;19928;-62
2023/07/02 04:01:13;;;;;;;;;;;;;;;;;;5065073;28;19927;-62
2023/07/02 04:03:39;;;;;;;;;;;;;;;;;;5061340;28;20601;-61
2023/07/02 04:06:07;;;;;;;;;;;;;;;;;;5065011;28;20413;-62
2023/07/02 04:08:34;;;;;;;;;;;;;;;;;;5065110;28;19924;-62
2023/07/02 04:11:00;;;;;;;;;;;;;;;;;;5065697;28;19924;-62
2023/07/02 04:13:28;;;;;;;;;;;;;;;;;;5064305;28;21300;-62
2023/07/02 04:15:54;;;;;;;;;;;;;;;;;;5063664;28;19924;-63
2023/07/02 04:18:20;;;;;;;;;;;;;;;;;;5065441;28;19967;-62
2023/07/02 04:20:46;;;;;;;;;;;;;;;;;;5065293;28;19972;-62
2023/07/02 04:23:11;;;;;;;;;;;;;;;;;;5062677;28;19958;-63
2023/07/02 04:25:37;;;;;;;;;;;;;;;;;;5065428;28;20282;-62
2023/07/02 04:28:03;;;;;;;;;;;;;;;;;;5064604;28;19928;-62
2023/07/02 04:30:29;;;;;;;;;;;;;;;;;;5064239;28;19925;-62
2023/07/02 04:32:55;;;;;;;;;;;;;;;;;;5064732;28;19979;-62
2023/07/02 04:35:21;;;;;;;;;;;;;;;;;;5064904;28;20039;-62
2023/07/02 04:37:47;;;;;;;;;;;;;;;;;;5064902;28;19951;-62
2023/07/02 04:40:14;;;;;;;;;;;;;;;;;;5065309;28;19990;-62
2023/07/02 04:42:40;;;;;;;;;;;;;;;;;;5064467;28;19924;-62
2023/07/02 04:45:06;;;;;;;;;;;;;;;;;;5051780;28;19953;-62
2023/07/02 04:47:32;;;;;;;;;;;;;;;;;;5061897;28;19928;-62
2023/07/02 04:49:58;;;;;;;;;;;;;;;;;;5063084;28;20030;-61
2023/07/02 04:52:24;;;;;;;;;;;;;;;;;;5064632;28;19928;-62
2023/07/02 04:54:50;;;;;;;;;;;;;;;;;;5063878;28;20385;-62
2023/07/02 04:57:16;;;;;;;;;;;;;;;;;;5065167;28;19925;-62
2023/07/02 04:59:42;;;;;;;;;;;;;;;;;;5064006;28;19935;-61
2023/07/02 05:02:08;;;;;;;;;;;;;;;;;;5065489;28;19924;-62
2023/07/02 05:04:34;;;;;;;;;;;;;;;;;;5064030;28;19924;-62
2023/07/02 05:07:00;;;;;;;;;;;;;;;;;;5064106;28;19931;-62
2023/07/02 05:09:25;;;;;;;;;;;;;;;;;;5064152;28;19985;-62
2023/07/02 05:11:51;;;;;;;;;;;;;;;;;;5064789;28;19924;-62
2023/07/02 05:14:17;;;;;;;;;;;;;;;;;;5064426;28;19935;-62
2023/07/02 05:16:43;;;;;;;;;;;;;;;;;;5062776;28;19925;-62
2023/07/02 05:19:09;;;;;;;;;;;;;;;;;;5064734;28;19925;-62
2023/07/02 05:21:35;;;;;;;;;;;;;;;;;;5063496;28;19931;-63
2023/07/02 05:24:01;;;;;;;;;;;;;;;;;;5064444;28;19998;-62
2023/07/02 05:26:27;;;;;;;;;;;;;;;;;;5064115;28;20413;-61
2023/07/02 05:28:53;;;;;;;;;;;;;;;;;;5062698;28;19932;-60
2023/07/02 05:31:19;;;;;;;;;;;;;;;;;;5063761;28;19932;-60
2023/07/02 05:33:45;;;;;;;;;;;;;;;;;;5063277;28;19943;-61
2023/07/02 05:36:11;;;;;;;;;;;;;;;;;;5064646;28;19924;-61
2023/07/02 05:38:37;;;;;;;;;;;;;;;;;;5063948;28;20606;-63
2023/07/02 05:41:03;;;;;;;;;;;;;;;;;;5064169;28;20122;-63
2023/07/02 05:43:29;;;;;;;;;;;;;;;;;;5064103;28;19931;-62
2023/07/02 05:45:55;;;;;;;;;;;;;;;;;;5063388;28;19924;-61
2023/07/02 05:48:21;;;;;;;;;;;;;;;;;;5055768;28;20385;-61
2023/07/02 05:50:47;;;;;;;;;;;;;;;;;;5064634;28;19935;-62
2023/07/02 05:53:13;;;;;;;;;;;;;;;;;;5064515;28;20366;-61
2023/07/02 05:55:39;;;;;;;;;;;;;;;;;;5063993;28;19931;-61
2023/07/02 05:58:06;;;;;;;;;;;;;;;;;;5063921;28;19924;-62
2023/07/02 06:00:31;;;;;;;;;;;;;;;;;;5054486;28;20241;-62
2023/07/02 06:02:57;;;;;;;;;;;;;;;;;;5056849;28;19956;-63
2023/07/02 06:05:23;;;;;;;;;;;;;;;;;;5063871;28;20416;-61
2023/07/02 06:07:49;;;;;;;;;;;;;;;;;;5060536;28;19925;-64
2023/07/02 06:10:16;;;;;;;;;;;;;;;;;;5061745;28;19967;-63
2023/07/02 06:12:43;;;;;;;;;;;;;;;;;;5067441;28;19964;-63
2023/07/02 06:15:09;;;;;;;;;;;;;;;;;;5061138;28;19925;-63
2023/07/02 06:17:35;;;;;;;;;;;;;;;;;;5064406;28;20298;-62
2023/07/02 06:20:00;;;;;;;;;;;;;;;;;;5074096;28;19963;-62
2023/07/02 06:22:26;;;;;;;;;;;;;;;;;;5063703;28;20024;-61
2023/07/02 06:24:52;;;;;;;;;;;;;;;;;;5062179;28;20012;-62
2023/07/02 06:27:18;;;;;;;;;;;;;;;;;;5063392;28;20015;-62
2023/07/02 06:29:44;;;;;;;;;;;;;;;;;;5066344;28;19924;-61
2023/07/02 06:32:10;;;;;;;;;;;;;;;;;;5067241;28;20487;-61
2023/07/02 06:34:36;;;;;;;;;;;;;;;;;;5067271;28;19925;-61
2023/07/02 06:37:02;;;;;;;;;;;;;;;;;;5067224;28;19974;-61
2023/07/02 06:39:28;;;;;;;;;;;;;;;;;;5067365;28;19976;-61
2023/07/02 06:41:54;;;;;;;;;;;;;;;;;;5064195;28;19935;-61
2023/07/02 06:44:20;;;;;;;;;;;;;;;;;;5063215;28;19921;-61
2023/07/02 06:46:46;;;;;;;;;;;;;;;;;;5064354;28;20377;-62
2023/07/02 06:49:12;;;;;;;;;;;;;;;;;;5058587;28;19936;-61
2023/07/02 06:51:38;;;;;;;;;;;;;;;;;;5065155;28;19929;-61
2023/07/02 06:54:04;;;;;;;;;;;;;;;;;;5064299;28;20346;-61
2023/07/02 06:56:31;;;;;;;;;;;;;;;;;;5064622;28;19928;-61
2023/07/02 06:58:57;;;;;;;;;;;;;;;;;;5064025;28;20094;-62
2023/07/02 07:01:23;;;;;;;;;;;;;;;;;;5052418;28;19928;-63
2023/07/02 07:03:49;;;;;;;;;;;;;;;;;;5050829;28;19935;-63
2023/07/02 07:06:15;;;;;;;;;;;;;;;;;;5063208;28;20027;-62
2023/07/02 07:08:41;;;;;;;;;;;;;;;;;;5063407;28;19936;-62
2023/07/02 07:11:07;;;;;;;;;;;;;;;;;;5057463;28;20026;-63
2023/07/02 07:13:32;;;;;;;;;;;;;;;;;;5055415;28;19983;-63
2023/07/02 07:15:58;;;;;;;;;;;;;;;;;;5063615;28;19924;-63
2023/07/02 07:18:24;;;;;;;;;;;;;;;;;;5063437;28;19984;-62
2023/07/02 07:20:52;;;;;;;;;;;;;;;;;;5064137;28;19935;-63
2023/07/02 07:23:18;;;;;;;;;;;;;;;;;;5063612;28;19928;-61
2023/07/02 07:25:44;;;;;;;;;;;;;;;;;;5052503;28;19933;-62
2023/07/02 07:28:15;;;;;;;;;;;;;;;;;;5064114;28;19928;-62
2023/07/02 07:30:41;;;;;;;;;;;;;;;;;;5062749;28;20419;-62
2023/07/02 07:33:07;;;;;;;;;;;;;;;;;;5056268;28;20312;-61
2023/07/02 07:35:33;;;;;;;;;;;;;;;;;;5063175;28;19928;-61
2023/07/02 07:37:58;;;;;;;;;;;;;;;;;;5063109;28;20011;-61
2023/07/02 07:40:24;;;;;;;;;;;;;;;;;;5060745;28;20031;-61
2023/07/02 07:42:50;;;;;;;;;;;;;;;;;;5061487;28;20007;-61
2023/07/02 07:45:16;;;;;;;;;;;;;;;;;;5051149;28;19931;-60
2023/07/02 07:47:43;;;;;;;;;;;;;;;;;;5061345;28;20011;-61
2023/07/02 07:50:12;;;;;;;;;;;;;;;;;;5062759;28;19954;-61
2023/07/02 07:52:38;;;;;;;;;;;;;;;;;;5064004;28;19929;-60
2023/07/02 07:55:04;;;;;;;;;;;;;;;;;;5062774;28;19929;-60
2023/07/02 07:57:30;;;;;;;;;;;;;;;;;;5061822;28;19935;-60
2023/07/02 07:59:56;;;;;;;;;;;;;;;;;;5062187;28;19932;-60
2023/07/02 08:02:23;;;;;;;;;;;;;;;;;;5063545;28;20278;-60
2023/07/02 08:04:48;;;;;;;;;;;;;;;;;;5062570;28;19932;-60
2023/07/02 08:07:15;;;;;;;;;;;;;;;;;;5061429;28;19932;-61
2023/07/02 08:09:41;;;;;;;;;;;;;;;;;;5056995;28;19928;-61
2023/07/02 08:12:07;;;;;;;;;;;;;;;;;;5062998;28;19930;-61
2023/07/02 08:14:34;;;;;;;;;;;;;;;;;;5061947;28;19935;-60
2023/07/02 08:17:00;;;;;;;;;;;;;;;;;;5062383;28;19929;-61
2023/07/02 08:19:26;;;;;;;;;;;;;;;;;;5063278;28;19929;-61
2023/07/02 08:21:52;;;;;;;;;;;;;;;;;;5061181;28;19928;-61
2023/07/02 08:24:18;;;;;;;;;;;;;;;;;;5063064;28;19931;-60
2023/07/02 08:26:44;;;;;;;;;;;;;;;;;;5062774;28;19932;-61
2023/07/02 08:29:10;;;;;;;;;;;;;;;;;;5060329;28;19928;-62
2023/07/02 08:31:36;;;;;;;;;;;;;;;;;;5056278;28;20289;-61
2023/07/02 08:34:02;;;;;;;;;;;;;;;;;;5062527;28;20616;-61
2023/07/02 08:36:28;;;;;;;;;;;;;;;;;;5063576;28;20007;-61
2023/07/02 08:38:54;;;;;;;;;;;;;;;;;;5062382;28;20525;-60
2023/07/02 08:41:20;;;;;;;;;;;;;;;;;;5060919;28;19982;-58
2023/07/02 08:43:48;;;;;;;;;;;;;;;;;;5061734;28;19928;-59
2023/07/02 08:46:14;;;;;;;;;;;;;;;;;;5062672;28;19928;-61
2023/07/02 08:48:40;;;;;;;;;;;;;;;;;;5063220;28;19938;-62
2023/07/02 08:51:06;;;;;;;;;;;;;;;;;;5056582;28;19929;-61
2023/07/02 08:53:33;;;;;;;;;;;;;;;;;;5061987;28;20223;-61
2023/07/02 08:55:59;;;;;;;;;;;;;;;;;;5062034;28;19929;-61
2023/07/02 08:58:25;;;;;;;;;;;;;;;;;;5062185;28;20396;-61
2023/07/02 09:00:51;;;;;;;;;;;;;;;;;;5061553;28;20021;-61
2023/07/02 09:03:17;;;;;;;;;;;;;;;;;;5061761;28;19986;-61
2023/07/02 09:05:43;;;;;;;;;;;;;;;;;;5062148;28;19928;-61
2023/07/02 09:08:09;;;;;;;;;;;;;;;;;;5062008;28;19982;-62
2023/07/02 09:10:34;;;;;;;;;;;;;;;;;;5061781;28;19925;-61
2023/07/02 09:13:00;;;;;;;;;;;;;;;;;;5061934;28;20465;-61
2023/07/02 09:15:26;;;;;;;;;;;;;;;;;;5061006;28;20404;-61
2023/07/02 09:17:52;;;;;;;;;;;;;;;;;;5061296;28;19936;-61
2023/07/02 09:20:18;;;;;;;;;;;;;;;;;;5061788;28;19929;-60
2023/07/02 09:22:44;;;;;;;;;;;;;;;;;;5060992;28;20003;-61
2023/07/02 09:25:11;;;;;;;;;;;;;;;;;;5058592;28;20441;-62
2023/07/02 09:27:38;;;;;;;;;;;;;;;;;;5062090;28;19937;-61
2023/07/02 09:30:04;;;;;;;;;;;;;;;;;;5060384;28;20067;-61
2023/07/02 09:32:30;;;;;;;;;;;;;;;;;;5061504;28;20035;-61
2023/07/02 09:34:56;;;;;;;;;;;;;;;;;;5060806;28;19935;-62
2023/07/02 09:37:22;;;;;;;;;;;;;;;;;;5060431;28;19924;-61
2023/07/02 09:39:48;;;;;;;;;;;;;;;;;;5061255;28;19928;-61
2023/07/02 09:42:14;;;;;;;;;;;;;;;;;;5061098;28;19925;-62
2023/07/02 09:44:42;;;;;;;;;;;;;;;;;;5061264;28;20369;-62
2023/07/02 09:47:08;;;;;;;;;;;;;;;;;;5061256;28;20369;-63
2023/07/02 09:49:34;;;;;;;;;;;;;;;;;;5061300;28;19932;-62
2023/07/02 09:52:00;;;;;;;;;;;;;;;;;;5057085;28;19928;-61
2023/07/02 09:54:26;;;;;;;;;;;;;;;;;;5061109;28;20441;-61
2023/07/02 09:56:52;;;;;;;;;;;;;;;;;;5060201;28;19935;-61
2023/07/02 09:59:18;;;;;;;;;;;;;;;;;;5060241;28;19928;-62
2023/07/02 10:01:44;;;;;;;;;;;;;;;;;;5060784;28;20058;-59
2023/07/02 10:04:10;;;;;;;;;;;;;;;;;;5052909;28;20452;-61
2023/07/02 10:06:35;;;;;;;;;;;;;;;;;;5050298;28;19924;-61
2023/07/02 10:09:01;;;;;;;;;;;;;;;;;;5059954;28;20030;-61
2023/07/02 10:11:27;;;;;;;;;;;;;;;;;;5051390;28;19943;-62
2023/07/02 10:13:53;;;;;;;;;;;;;;;;;;5060131;28;19928;-62
2023/07/02 10:16:20;;;;;;;;;;;;;;;;;;5060463;28;20597;-62
2023/07/02 10:18:46;;;;;;;;;;;;;;;;;;5061184;28;19928;-62
2023/07/02 10:21:12;;;;;;;;;;;;;;;;;;5053374;28;19929;-62
2023/07/02 10:23:38;;;;;;;;;;;;;;;;;;5057473;28;20427;-62
2023/07/02 10:26:04;;;;;;;;;;;;;;;;;;5059991;28;19929;-63
2023/07/02 10:28:31;;;;;;;;;;;;;;;;;;5057603;28;19977;-63
2023/07/02 10:30:57;;;;;;;;;;;;;;;;;;5061089;28;19966;-64
2023/07/02 10:33:24;;;;;;;;;;;;;;;;;;5055368;28;20376;-64
2023/07/02 10:35:50;;;;;;;;;;;;;;;;;;5059155;28;19932;-64
2023/07/02 10:38:16;;;;;;;;;;;;;;;;;;5059697;28;19944;-65
2023/07/02 10:40:41;;;;;;;;;;;;;;;;;;5059539;28;19975;-63
2023/07/02 10:43:07;;;;;;;;;;;;;;;;;;5058910;28;19929;-63
2023/07/02 10:45:33;;;;;;;;;;;;;;;;;;5060459;28;19972;-62
2023/07/02 10:47:59;;;;;;;;;;;;;;;;;;5055313;28;19924;-63
2023/07/02 10:50:25;;;;;;;;;;;;;;;;;;5059224;28;19928;-64
2023/07/02 10:52:51;;;;;;;;;;;;;;;;;;5060680;28;19928;-64
2023/07/02 10:55:18;;;;;;;;;;;;;;;;;;5058726;28;19928;-64
2023/07/02 10:57:44;;;;;;;;;;;;;;;;;;5051447;28;20301;-64
2023/07/02 11:00:10;;;;;;;;;;;;;;;;;;5050213;28;19935;-65
2023/07/02 11:02:36;;;;;;;;;;;;;;;;;;5060898;28;19924;-63
2023/07/02 11:05:03;;;;;;;;;;;;;;;;;;5059377;28;19928;-64
2023/07/02 11:07:28;;;;;;;;;;;;;;;;;;5050116;28;19976;-64
2023/07/02 11:09:54;;;;;;;;;;;;;;;;;;5060136;28;19960;-63
2023/07/02 11:12:20;;;;;;;;;;;;;;;;;;5060718;28;19993;-63
2023/07/02 11:14:46;;;;;;;;;;;;;;;;;;5057042;28;19938;-64
2023/07/02 11:17:12;;;;;;;;;;;;;;;;;;5064050;28;19929;-63
2023/07/02 11:19:38;;;;;;;;;;;;;;;;;;5064895;28;20377;-63
2023/07/02 11:22:04;;;;;;;;;;;;;;;;;;5064222;28;19935;-64
2023/07/02 11:24:30;;;;;;;;;;;;;;;;;;5063777;28;19966;-64
2023/07/02 11:26:56;;;;;;;;;;;;;;;;;;5057894;28;19982;-63
2023/07/02 11:29:22;;;;;;;;;;;;;;;;;;5062523;28;19928;-64
2023/07/02 11:31:48;;;;;;;;;;;;;;;;;;5058315;28;19928;-64
2023/07/02 11:34:14;;;;;;;;;;;;;;;;;;5062261;28;19935;-64
2023/07/02 11:36:40;;;;;;;;;;;;;;;;;;5064628;28;19928;-64
2023/07/02 11:39:06;;;;;;;;;;;;;;;;;;5060891;28;20362;-64
2023/07/02 11:41:32;;;;;;;;;;;;;;;;;;5062937;28;20145;-64
2023/07/02 11:43:58;;;;;;;;;;;;;;;;;;5063629;28;19932;-64
2023/07/02 11:46:24;;;;;;;;;;;;;;;;;;5063673;28;19932;-64
2023/07/02 11:48:50;;;;;;;;;;;;;;;;;;5061531;28;19935;-65
2023/07/02 11:51:16;;;;;;;;;;;;;;;;;;5063646;28;20353;-64
2023/07/02 11:53:42;;;;;;;;;;;;;;;;;;5063003;28;19929;-63
2023/07/02 11:56:08;;;;;;;;;;;;;;;;;;5058629;28;19932;-65
2023/07/02 11:58:34;;;;;;;;;;;;;;;;;;5057838;28;19928;-67
2023/07/02 12:01:00;;;;;;;;;;;;;;;;;;5063936;28;19932;-64
2023/07/02 12:03:26;;;;;;;;;;;;;;;;;;5055665;28;19973;-66
2023/07/02 12:05:52;;;;;;;;;;;;;;;;;;5063671;28;19979;-64
2023/07/02 12:08:18;;;;;;;;;;;;;;;;;;5062646;28;20763;-66
2023/07/02 12:10:44;;;;;;;;;;;;;;;;;;5062955;28;19929;-65
2023/07/02 12:13:10;;;;;;;;;;;;;;;;;;5063025;28;19925;-64
2023/07/02 12:15:36;;;;;;;;;;;;;;;;;;5062402;28;19971;-65
2023/07/02 12:18:02;;;;;;;;;;;;;;;;;;5063094;28;19971;-64
2023/07/02 12:20:28;;;;;;;;;;;;;;;;;;5063113;28;19982;-66
2023/07/02 12:22:54;;;;;;;;;;;;;;;;;;5062966;28;19928;-64
2023/07/02 12:25:20;;;;;;;;;;;;;;;;;;5063261;28;19928;-64
2023/07/02 12:27:46;;;;;;;;;;;;;;;;;;5060520;28;19929;-65
2023/07/02 12:30:16;;;;;;;;;;;;;;;;;;5061990;28;19935;-64
2023/07/02 12:32:42;;;;;;;;;;;;;;;;;;5062749;28;19983;-65
2023/07/02 12:35:08;;;;;;;;;;;;;;;;;;5063124;28;19979;-65
2023/07/02 12:37:34;;;;;;;;;;;;;;;;;;5061943;28;19920;-65
2023/07/02 12:40:01;;;;;;;;;;;;;;;;;;5062706;28;20314;-65
2023/07/02 12:42:26;;;;;;;;;;;;;;;;;;5062526;28;19928;-65
2023/07/02 12:44:52;;;;;;;;;;;;;;;;;;5061873;28;19947;-64
2023/07/02 12:47:18;;;;;;;;;;;;;;;;;;5061949;28;20421;-64
2023/07/02 12:49:44;;;;;;;;;;;;;;;;;;5061250;28;19974;-63
2023/07/02 12:52:10;;;;;;;;;;;;;;;;;;5062804;28;19931;-67
2023/07/02 12:54:36;;;;;;;;;;;;;;;;;;5062964;28;19932;-64
2023/07/02 12:57:02;;;;;;;;;;;;;;;;;;5062348;28;19932;-65
2023/07/02 12:59:28;;;;;;;;;;;;;;;;;;5060955;28;20329;-63
2023/07/02 13:01:54;;;;;;;;;;;;;;;;;;5061534;28;19955;-67
2023/07/02 13:04:20;;;;;;;;;;;;;;;;;;5061934;28;19998;-66
2023/07/02 13:06:46;;;;;;;;;;;;;;;;;;5062295;28;20352;-65
2023/07/02 13:09:12;;;;;;;;;;;;;;;;;;5061953;28;19968;-66
2023/07/02 13:11:38;;;;;;;;;;;;;;;;;;5061319;28;20646;-66
2023/07/02 13:14:04;;;;;;;;;;;;;;;;;;5061646;28;20414;-64
2023/07/02 13:16:30;;;;;;;;;;;;;;;;;;5060690;28;19982;-64
2023/07/02 13:18:56;;;;;;;;;;;;;;;;;;5062118;28;19924;-64
2023/07/02 13:21:22;;;;;;;;;;;;;;;;;;5061421;28;20049;-65
2023/07/02 13:23:48;;;;;;;;;;;;;;;;;;5061733;28;20399;-67
2023/07/02 13:26:14;;;;;;;;;;;;;;;;;;5061324;28;19930;-66
2023/07/02 13:28:40;;;;;;;;;;;;;;;;;;5060656;28;19928;-66
2023/07/02 13:31:07;;;;;;;;;;;;;;;;;;5059873;28;19928;-66
2023/07/02 13:33:33;;;;;;;;;;;;;;;;;;5051752;28;19928;-66
2023/07/02 13:35:59;;;;;;;;;;;;;;;;;;5055752;28;19930;-66
2023/07/02 13:38:25;;;;;;;;;;;;;;;;;;5059782;28;19940;-65
2023/07/02 13:40:51;;;;;;;;;;;;;;;;;;5061550;28;19975;-66
2023/07/02 13:43:17;;;;;;;;;;;;;;;;;;5061386;28;19924;-67
2023/07/02 13:45:43;;;;;;;;;;;;;;;;;;5061614;28;20271;-67
2023/07/02 13:48:09;;;;;;;;;;;;;;;;;;5061380;28;19935;-66
2023/07/02 13:50:35;;;;;;;;;;;;;;;;;;5061175;28;19939;-64
2023/07/02 13:53:01;;;;;;;;;;;;;;;;;;5061656;28;19934;-65
2023/07/02 13:55:27;;;;;;;;;;;;;;;;;;5058294;28;19928;-66
2023/07/02 13:57:54;;;;;;;;;;;;;;;;;;5060656;28;19982;-65
2023/07/02 14:00:20;;;;;;;;;;;;;;;;;;5061174;28;19935;-66
2023/07/02 14:02:46;;;;;;;;;;;;;;;;;;5061082;28;19933;-68
2023/07/02 14:05:12;;;;;;;;;;;;;;;;;;5058814;28;19994;-65
2023/07/02 14:07:38;;;;;;;;;;;;;;;;;;5061611;28;19929;-66
2023/07/02 14:10:04;;;;;;;;;;;;;;;;;;5061136;28;19990;-65
2023/07/02 14:12:29;;;;;;;;;;;;;;;;;;5060428;28;19928;-66
2023/07/02 14:14:55;;;;;;;;;;;;;;;;;;5060175;28;19971;-65
2023/07/02 14:17:21;;;;;;;;;;;;;;;;;;5059869;28;20519;-66
2023/07/02 14:19:47;;;;;;;;;;;;;;;;;;5051166;28;19968;-66
2023/07/02 14:22:13;;;;;;;;;;;;;;;;;;5056306;28;20467;-66
2023/07/02 14:24:39;;;;;;;;;;;;;;;;;;5060031;28;19932;-65
2023/07/02 14:27:05;;;;;;;;;;;;;;;;;;5060669;28;19932;-65
2023/07/02 14:29:31;;;;;;;;;;;;;;;;;;5057688;28;19979;-64
2023/07/02 14:31:57;;;;;;;;;;;;;;;;;;5060481;28;19983;-66
2023/07/02 14:34:23;;;;;;;;;;;;;;;;;;5060423;28;19940;-66
2023/07/02 14:36:49;;;;;;;;;;;;;;;;;;5059867;28;19963;-66
2023/07/02 14:39:15;;;;;;;;;;;;;;;;;;5059574;28;19963;-65
2023/07/02 14:41:41;;;;;;;;;;;;;;;;;;5049975;28;19967;-67
2023/07/02 14:44:07;;;;;;;;;;;;;;;;;;5054612;28;19935;-65
2023/07/02 14:46:33;;;;;;;;;;;;;;;;;;5058701;28;19935;-63
2023/07/02 14:48:58;;;;;;;;;;;;;;;;;;5060354;28;19928;-64
2023/07/02 14:51:24;;;;;;;;;;;;;;;;;;5062120;28;19936;-64
2023/07/02 14:53:50;;;;;;;;;;;;;;;;;;5062836;28;20347;-64
2023/07/02 14:56:16;;;;;;;;;;;;;;;;;;5062740;28;19928;-64
2023/07/02 14:58:42;;;;;;;;;;;;;;;;;;5062174;28;19972;-63
2023/07/02 15:01:08;;;;;;;;;;;;;;;;;;5063678;28;19932;-63
2023/07/02 15:03:34;;;;;;;;;;;;;;;;;;5063623;28;19947;-63
2023/07/02 15:06:00;;;;;;;;;;;;;;;;;;5056689;28;19990;-64
2023/07/02 15:08:26;;;;;;;;;;;;;;;;;;5055692;28;19924;-63
2023/07/02 15:10:52;;;;;;;;;;;;;;;;;;5063455;28;19928;-65
2023/07/02 15:13:18;;;;;;;;;;;;;;;;;;5063093;28;20263;-63
2023/07/02 15:15:44;;;;;;;;;;;;;;;;;;5062438;28;19950;-65
2023/07/02 15:18:09;;;;;;;;;;;;;;;;;;5063635;28;19928;-64
2023/07/02 15:20:35;;;;;;;;;;;;;;;;;;5063561;28;20016;-64
2023/07/02 15:23:01;;;;;;;;;;;;;;;;;;5063728;28;20023;-64
2023/07/02 15:25:27;;;;;;;;;;;;;;;;;;5062877;28;19951;-63
2023/07/02 15:27:53;;;;;;;;;;;;;;;;;;5062737;28;19928;-64
2023/07/02 15:30:19;;;;;;;;;;;;;;;;;;5062274;28;19928;-66
2023/07/02 15:32:45;;;;;;;;;;;;;;;;;;5063510;28;19977;-64
2023/07/02 15:35:11;;;;;;;;;;;;;;;;;;5063804;28;19925;-65
2023/07/02 15:37:38;;;;;;;;;;;;;;;;;;5063827;28;19936;-64
2023/07/02 15:40:04;;;;;;;;;;;;;;;;;;5063665;28;19928;-64
2023/07/02 15:42:31;;;;;;;;;;;;;;;;;;5063335;28;20244;-65
2023/07/02 15:44:57;;;;;;;;;;;;;;;;;;5061799;28;19933;-64
2023/07/02 15:47:23;;;;;;;;;;;;;;;;;;5062871;28;19935;-64
2023/07/02 15:49:49;;;;;;;;;;;;;;;;;;5062872;28;19974;-64
2023/07/02 15:52:15;;;;;;;;;;;;;;;;;;5063342;28;20313;-64
2023/07/02 15:54:41;;;;;;;;;;;;;;;;;;5063095;28;20338;-63
2023/07/02 15:57:07;;;;;;;;;;;;;;;;;;5063417;28;19932;-63
2023/07/02 15:59:33;;;;;;;;;;;;;;;;;;5058820;28;19925;-64
2023/07/02 16:01:59;;;;;;;;;;;;;;;;;;5062740;28;19935;-64
2023/07/02 16:04:25;;;;;;;;;;;;;;;;;;5063119;28;19925;-64
2023/07/02 16:06:51;;;;;;;;;;;;;;;;;;5062470;28;20286;-63
2023/07/02 16:09:17;;;;;;;;;;;;;;;;;;5062469;28;19928;-64
2023/07/02 16:11:43;;;;;;;;;;;;;;;;;;5062325;28;20062;-62
2023/07/02 16:14:10;;;;;;;;;;;;;;;;;;5062418;28;20033;-63
2023/07/02 16:16:39;;;;;;;;;;;;;;;;;;5062915;28;20443;-64
2023/07/02 16:19:05;;;;;;;;;;;;;;;;;;5062617;28;20702;-63
2023/07/02 16:21:33;;;;;;;;;;;;;;;;;;5062398;28;20096;-64
2023/07/02 16:23:59;;;;;;;;;;;;;;;;;;5060659;28;19928;-64
2023/07/02 16:26:25;;;;;;;;;;;;;;;;;;5062880;28;19936;-63
2023/07/02 16:28:51;;;;;;;;;;;;;;;;;;5061792;28;19925;-63
2023/07/02 16:31:17;;;;;;;;;;;;;;;;;;5056611;28;19960;-63
2023/07/02 16:33:43;;;;;;;;;;;;;;;;;;5062347;28;19946;-64
2023/07/02 16:36:09;;;;;;;;;;;;;;;;;;5060814;28;19928;-64